Nearby METAR Reports

 

EGTC - Cranfield, United Kingdom
Distance from station: SE 15mi, 24km
Updated: 04/07/2020 10:20
Mostly Cloudy
Mostly Cloudy
 Wind from WSW
Wind: WSW 25 mph , 41 km/h
Temperature: 18°C
Dew Point: 15°C
Humidity: 83%
Barometer: 1009 hPa
Clouds: Mostly Cloudy
Visibility: 6 miles , 10 km
Cloud details: Mostly Cloudy 427 m
Mostly Cloudy 549 m
2020/07/04 09:20 EGTC 040920Z 24022KT 9999 BKN014 BKN018 18/15 Q1009
EGTK - Oxford, United Kingdom
Distance from station: SW 32mi, 51km
Updated: 04/07/2020 10:50
Overcast
Overcast
 Wind from WSW
Wind: WSW 20 mph , 31 km/h
Temperature: 18°C
Dew Point: 15°C
Humidity: 83%
Barometer: 1009 hPa
Clouds: Overcast
Visibility: 6 miles , 10 km
Cloud details: Partly Cloudy 396 m
Overcast 488 m
2020/07/04 09:50 EGTK 040950Z 24017KT 9999 SCT013 OVC016 18/15 Q1009
EGGW - Luton Airport, United Kingdom
Distance from station: SE 32mi, 52km
Updated: 04/07/2020 10:50
Overcast
Overcast
 Wind from WSW
Wind: WSW 18 mph , 30 km/h
Temperature: 18°C
Dew Point: 15°C
Humidity: 83%
Barometer: 1010 hPa
Clouds: Overcast
Visibility: 6 miles , 10 km
Cloud details: Mostly Cloudy 396 m
Overcast 640 m
2020/07/04 09:50 EGGW 040950Z AUTO 24016KT 9999 BKN013 OVC021 18/15 Q1010
 
EGXT - Wittering Raf, United Kingdom
Distance from station: NNE 33mi, 53km
Updated: 04/07/2020 09:50
Mostly Cloudy
Mostly Cloudy
 Wind from SW
Wind: SW 15 mph , 24 km/h
Temperature: 18°C
Dew Point: 14°C
Humidity: 78%
Barometer: 1007 hPa
Clouds: Mostly Cloudy
Visibility: 6 miles , 10 km
Cloud details: Mostly Cloudy 518 m
2020/07/04 08:50 EGXT 040850Z AUTO 23013KT 9999 BKN017/// 18/14 Q1007
EGBB - Birmingham Airpo, United Kingdom
Distance from station: WNW 41mi, 65km
Updated: 04/07/2020 10:50
Mostly Cloudy
Mostly Cloudy
 Wind from SW
Wind: SW 10 mph , 17 km/h
Temperature: 18°C
Dew Point: 14°C
Humidity: 78%
Barometer: 1008 hPa
Clouds: Mostly Cloudy
Visibility: 6 miles , 10 km
Cloud details: Mostly Cloudy 488 m
Mostly Cloudy 640 m
2020/07/04 09:50 EGBB 040950Z 22009KT 180V250 9999 BKN016 BKN021 18/14 Q1008
EGUB - Benson Raf, United Kingdom
Distance from station: S 42mi, 67km
Updated: 04/07/2020 09:50
Mostly Cloudy
Mostly Cloudy
 Wind from SSW
Wind: SSW 14 mph , 22 km/h
Temperature: 18°C
Dew Point: 15°C
Humidity: 83%
Barometer: 1010 hPa
Clouds: Mostly Cloudy
Visibility: 6 miles , 10 km
Cloud details: Mostly Cloudy 335 m
2020/07/04 08:50 EGUB 040850Z AUTO 21012KT 9999 // BKN011/// 18/15 Q1010
 
EGVN - Brize Norton Raf, United Kingdom
Distance from station: SW 43mi, 69km
Updated: 04/07/2020 10:20
Mostly Cloudy
Mostly Cloudy
 Wind from SW
Wind: SW 10 mph , 17 km/h
Temperature: 17°C
Dew Point: 15°C
Humidity: 88%
Barometer: 1010 hPa
Clouds: Mostly Cloudy
Visibility: 6 miles , 10 km
Cloud details: Partly Cloudy 274 m
Mostly Cloudy 396 m
2020/07/04 09:20 EGVN 040920Z 23009KT 9999 SCT009 BKN013 17/15 Q1010 NOSIG
EGSC - Cambridge, United Kingdom
Distance from station: E 44mi, 72km
Updated: 04/07/2020 10:50
Mostly Cloudy
Mostly Cloudy
 Wind from WSW
Wind: WSW 23 mph , 37 km/h
Temperature: 19°C
Dew Point: 15°C
Humidity: 78%
Barometer: 1009 hPa
Clouds: Mostly Cloudy
Visibility: 6 miles , 10 km
Cloud details: Mostly Cloudy 610 m
2020/07/04 09:50 EGSC 040950Z 25020KT 9999 BKN020 19/15 Q1009
EGNX - East Midlands, United Kingdom
Distance from station: NNW 46mi, 73km
Updated: 04/07/2020 10:20
Mostly Cloudy
Mostly Cloudy
 Wind from SW
Wind: SW 17 mph , 28 km/h
Temperature: 17°C
Dew Point: 14°C
Humidity: 83%
Barometer: 1007 hPa
Clouds: Mostly Cloudy
Visibility: 6 miles , 10 km
Cloud details: Mostly Cloudy 579 m
2020/07/04 09:20 EGNX 040920Z 22015KT 9999 BKN019 17/14 Q1007
 
EGWU - Northolt Raf, United Kingdom
Distance from station: SSE 50mi, 80km
Updated: 04/07/2020 10:50
Mostly Cloudy
Mostly Cloudy
 Wind from WSW
Wind: WSW 16 mph , 26 km/h
Temperature: 19°C
Dew Point: 15°C
Humidity: 78%
Barometer: 1010 hPa
Clouds: Mostly Cloudy
Visibility: 6 miles , 10 km
Cloud details: Mostly Cloudy 518 m
2020/07/04 09:50 EGWU 040950Z 25014KT 9999 BKN017 19/15 Q1010 TEMPO SCT014 RMK GRN TEMPO WHT